Time;durP1;ratioP1;P1;durP2;ratioP2;P2;SDS_P1;SDS_P2;PMS_P1;PMS_P2;Temp;Humidity;BMP_temperature;BMP_pressure;BME280_temperature;BME280_humidity;BME280_pressure;Samples;Min_cycle;Max_cycle;Signal;HPM_P1;HPM_P2
2023/10/06 00:00:54;;;;;;;2.55;0.50;;;;;;;4.21;71.10;101750.72;5027847;28;20057;-76
2023/10/06 00:03:21;;;;;;;2.38;0.55;;;;;;;4.24;71.08;101761.16;5032359;28;20056;-75
2023/10/06 00:05:49;;;;;;;2.13;0.63;;;;;;;4.21;71.06;101756.81;5026058;28;20573;-76
2023/10/06 00:08:18;;;;;;;3.25;0.82;;;;;;;4.22;71.08;101760.25;5027750;28;20091;-76
2023/10/06 00:10:51;;;;;;;0.55;0.30;;;;;;;4.21;71.09;101761.06;5031265;28;20040;-75
2023/10/06 00:13:24;;;;;;;1.90;0.40;;;;;;;4.19;71.17;101755.88;5027329;28;20124;-75
2023/10/06 00:15:51;;;;;;;5.90;0.60;;;;;;;4.19;71.24;101758.47;5032137;28;20053;-76
2023/10/06 00:18:19;;;;;;;2.85;0.40;;;;;;;4.16;71.28;101758.41;5029095;28;20045;-73
2023/10/06 00:20:48;;;;;;;2.25;0.30;;;;;;;4.18;71.25;101761.88;5021689;28;20037;-73
2023/10/06 00:23:21;;;;;;;1.55;0.60;;;;;;;4.16;71.31;101758.41;5029990;28;20058;-73
2023/10/06 00:25:51;;;;;;;3.05;0.38;;;;;;;4.17;71.40;101761.84;5026744;28;20052;-73
2023/10/06 00:28:19;;;;;;;1.85;0.30;;;;;;;4.15;71.34;101761.81;5028074;28;20596;-73
2023/10/06 00:30:55;;;;;;;2.15;0.40;;;;;;;4.15;71.24;101761.81;5031525;28;20052;-73
2023/10/06 00:33:24;;;;;;;3.40;0.60;;;;;;;4.14;71.31;101754.03;5025428;28;20498;-72
2023/10/06 00:35:51;;;;;;;4.57;0.30;;;;;;;4.12;71.40;101751.41;5027147;28;20045;-73
2023/10/06 00:38:19;;;;;;;1.30;0.30;;;;;;;4.12;71.50;101745.34;5029608;28;20220;-78
2023/10/06 00:40:50;;;;;;;1.67;0.40;;;;;;;4.09;71.51;101748.75;5027975;28;20059;-73
2023/10/06 00:43:30;;;;;;;1.08;0.20;;;;;;;4.05;71.48;101746.94;5025064;28;20041;-73
2023/10/06 00:46:00;;;;;;;0.70;0.30;;;;;;;4.09;71.43;101761.66;5032660;28;20068;-73
2023/10/06 00:48:29;;;;;;;0.93;0.30;;;;;;;4.09;71.50;101758.22;5030196;28;20123;-72
2023/10/06 00:50:58;;;;;;;2.15;0.30;;;;;;;4.08;71.64;101762.53;5032774;28;20067;-73
2023/10/06 00:53:31;;;;;;;2.42;0.30;;;;;;;4.06;71.69;101753.84;5028170;28;20056;-72
2023/10/06 00:56:00;;;;;;;3.47;0.32;;;;;;;4.01;71.68;101742.50;5031353;28;20046;-73
2023/10/06 00:58:33;;;;;;;1.02;0.30;;;;;;;4.05;71.69;101752.09;5032998;28;20045;-72
2023/10/06 01:01:00;;;;;;;6.28;0.40;;;;;;;4.05;71.69;101752.09;5028601;28;20077;-73
2023/10/06 01:03:27;;;;;;;0.52;0.30;;;;;;;4.04;71.73;101751.25;5030804;28;20394;-72
2023/10/06 01:05:59;;;;;;;0.40;0.20;;;;;;;4.03;71.77;101748.59;5030314;28;20059;-72
2023/10/06 01:08:28;;;;;;;2.50;0.20;;;;;;;4.01;71.98;101747.69;5030584;28;20037;-74
2023/10/06 01:11:11;;;;;;;2.25;0.40;;;;;;;4.00;71.94;101740.78;5027424;28;20057;-75
2023/10/06 01:13:46;;;;;;;4.30;0.30;;;;;;;4.01;71.96;101742.50;5028234;28;20069;-74
2023/10/06 01:16:15;;;;;;;1.15;0.30;;;;;;;4.00;71.87;101740.78;5028700;28;20046;-74
2023/10/06 01:18:42;;;;;;;4.47;0.38;;;;;;;3.99;71.79;101749.38;5030720;28;20060;-75
2023/10/06 01:21:17;;;;;;;2.05;0.30;;;;;;;3.98;72.06;101745.03;5028689;28;20710;-74
2023/10/06 01:23:48;;;;;;;1.27;0.30;;;;;;;3.92;72.01;101739.72;5029559;28;20045;-74
2023/10/06 01:26:15;;;;;;;0.80;0.40;;;;;;;3.95;71.83;101742.38;5030850;28;20102;-74
2023/10/06 01:28:45;;;;;;;3.15;0.40;;;;;;;3.95;72.02;101748.41;5028368;28;20406;-73
2023/10/06 01:31:14;;;;;;;1.63;0.40;;;;;;;3.95;72.10;101752.72;5035202;28;20474;-73
2023/10/06 01:33:45;;;;;;;1.15;0.40;;;;;;;3.95;72.11;101752.72;5034439;28;20089;-72
2023/10/06 01:36:14;;;;;;;1.90;0.30;;;;;;;3.94;72.24;101750.97;5033454;28;20789;-72
2023/10/06 01:38:43;;;;;;;2.00;0.38;;;;;;;3.95;72.36;101747.53;5033821;28;20057;-73
2023/10/06 01:41:12;;;;;;;4.22;0.40;;;;;;;3.93;72.22;101742.34;5029027;28;20057;-73
2023/10/06 01:43:39;;;;;;;1.80;0.40;;;;;;;3.93;72.39;101741.47;5034364;28;20092;-73
2023/10/06 01:46:08;;;;;;;5.05;0.52;;;;;;;3.86;72.18;101726.63;5032049;28;20041;-72
2023/10/06 01:48:36;;;;;;;0.93;0.22;;;;;;;3.91;72.61;101725.06;5032310;28;20037;-73
2023/10/06 01:51:08;;;;;;;0.70;0.20;;;;;;;3.91;72.38;101731.09;5022632;28;20168;-73
2023/10/06 01:53:40;;;;;;;2.30;0.28;;;;;;;3.91;72.23;101736.25;5034156;28;20494;-73
2023/10/06 01:56:07;;;;;;;2.17;0.50;;;;;;;3.90;72.38;101733.63;5030042;28;20067;-72
2023/10/06 01:58:36;;;;;;;0.95;0.25;;;;;;;3.90;72.30;101739.69;5032355;28;20566;-73
2023/10/06 02:01:05;;;;;;;2.83;0.63;;;;;;;3.88;72.33;101735.31;5031107;28;20391;-74
2023/10/06 02:03:38;;;;;;;0.40;0.20;;;;;;;3.88;72.43;101741.34;5030651;28;20049;-73
2023/10/06 02:06:13;;;;;;;0.98;0.30;;;;;;;3.88;72.47;101740.47;5034189;28;20041;-72
2023/10/06 02:08:42;;;;;;;1.40;0.20;;;;;;;3.86;72.56;101743.00;5028791;28;20049;-73
2023/10/06 02:11:10;;;;;;;0.88;0.30;;;;;;;3.86;72.45;101737.84;5028531;28;20045;-73
2023/10/06 02:13:39;;;;;;;1.67;0.28;;;;;;;3.85;72.55;101746.44;5030605;28;20056;-73
2023/10/06 02:16:07;;;;;;;1.38;0.30;;;;;;;3.85;72.84;101740.41;5033098;28;20053;-73
2023/10/06 02:18:37;;;;;;;0.43;0.20;;;;;;;3.83;72.63;101738.66;5029579;28;20682;-72
2023/10/06 02:21:11;;;;;;;0.30;0.20;;;;;;;3.83;72.77;101728.31;5037209;28;20057;-73
2023/10/06 02:23:38;;;;;;;0.82;0.20;;;;;;;3.85;72.64;101724.91;5035941;28;20048;-73
2023/10/06 02:26:09;;;;;;;0.50;0.20;;;;;;;3.83;72.83;101723.13;5041984;28;20049;-72
2023/10/06 02:28:44;;;;;;;1.27;0.20;;;;;;;3.82;72.88;101726.56;5038371;28;20561;-73
2023/10/06 02:31:12;;;;;;;2.08;0.30;;;;;;;3.82;72.68;101721.41;5036757;28;20048;-72
2023/10/06 02:33:39;;;;;;;0.93;0.32;;;;;;;3.85;72.76;101724.91;5040821;28;20041;-72
2023/10/06 02:36:15;;;;;;;2.10;0.30;;;;;;;3.84;72.91;101724.00;5037377;28;20052;-72
2023/10/06 02:38:46;;;;;;;1.10;0.20;;;;;;;3.83;72.83;101723.13;5033786;28;20128;-73
2023/10/06 02:41:18;;;;;;;1.25;0.20;;;;;;;3.83;72.63;101719.69;5037378;28;20462;-73
2023/10/06 02:43:48;;;;;;;1.77;0.30;;;;;;;3.82;72.65;101721.41;5042339;28;20090;-73
2023/10/06 02:46:16;;;;;;;0.30;0.20;;;;;;;3.80;73.22;101723.06;5033148;28;20096;-72
2023/10/06 02:48:48;;;;;;;4.30;0.22;;;;;;;3.81;72.95;101719.66;5041642;28;20051;-72
2023/10/06 02:51:29;;;;;;;3.13;0.20;;;;;;;3.81;72.99;101724.84;5033568;28;20076;-74
2023/10/06 02:56:44;;;;;;;3.10;0.20;;;;;;;3.80;73.01;101709.28;5034928;28;20041;-72
2023/10/06 02:59:21;;;;;;;1.00;0.35;;;;;;;3.80;72.86;101723.06;5035683;28;20045;-72
2023/10/06 03:01:53;;;;;;;1.75;0.20;;;;;;;3.80;72.96;101717.91;5036763;28;20132;-72
2023/10/06 03:04:25;;;;;;;0.75;0.20;;;;;;;3.81;72.73;101716.19;5040038;28;20041;-73
2023/10/06 03:06:55;;;;;;;0.82;0.35;;;;;;;3.79;72.96;101713.56;5033976;28;20052;-72
2023/10/06 03:09:29;;;;;;;0.82;0.20;;;;;;;3.79;72.79;101715.28;5041867;28;20045;-72
2023/10/06 03:11:59;;;;;;;1.40;0.25;;;;;;;3.79;72.70;101704.97;5032815;28;20053;-72
2023/10/06 03:14:38;;;;;;;0.50;0.20;;;;;;;3.79;72.81;101704.97;5040633;28;20114;-72
2023/10/06 03:17:09;;;;;;;0.20;0.20;;;;;;;3.77;72.74;101709.22;5029361;28;20049;-73
2023/10/06 03:19:40;;;;;;;6.25;1.58;;;;;;;3.76;72.71;101705.75;5042776;28;20116;-73
2023/10/06 03:22:09;;;;;;;0.55;0.20;;;;;;;3.76;72.66;101705.75;5032917;28;20045;-72
2023/10/06 03:24:43;;;;;;;1.58;0.40;;;;;;;3.72;73.00;101697.88;5042396;28;20603;-72
2023/10/06 03:27:12;;;;;;;0.60;0.30;;;;;;;3.76;72.98;101704.88;5035533;28;20681;-72
2023/10/06 03:29:47;;;;;;;0.70;0.20;;;;;;;3.76;72.79;101689.38;5037876;28;20478;-75
2023/10/06 03:32:22;;;;;;;0.30;0.20;;;;;;;3.74;72.77;101693.63;5041723;28;20443;-76
2023/10/06 03:34:50;;;;;;;3.35;0.20;;;;;;;3.74;72.71;101691.91;5029213;28;20133;-81
2023/10/06 03:37:34;;;;;;;0.20;0.10;;;;;;;3.74;72.92;101689.31;5040700;28;20056;-76
2023/10/06 03:40:11;;;;;;;0.32;0.20;;;;;;;3.71;72.72;101686.66;5031071;28;20065;-76
2023/10/06 03:42:39;;;;;;;1.83;0.10;;;;;;;3.73;72.49;101689.28;5034108;28;20044;-76
2023/10/06 03:45:18;;;;;;;1.92;0.30;;;;;;;3.72;72.77;101685.81;5039352;28;20041;-76
2023/10/06 03:47:48;;;;;;;0.60;0.10;;;;;;;3.69;72.72;101680.59;5035970;28;20052;-72
2023/10/06 03:50:16;;;;;;;0.40;0.20;;;;;;;3.71;72.73;101684.09;5039568;28;20469;-72
2023/10/06 03:52:43;;;;;;;1.70;0.20;;;;;;;3.67;72.70;101673.63;5036666;28;20053;-73
2023/10/06 03:55:12;;;;;;;1.73;0.20;;;;;;;3.64;72.86;101666.66;5037950;28;20059;-72
2023/10/06 03:57:39;;;;;;;0.50;0.15;;;;;;;3.67;72.49;101678.78;5035186;28;20072;-72
2023/10/06 04:00:17;;;;;;;0.15;0.10;;;;;;;3.66;72.83;101671.91;5042611;28;20901;-72
2023/10/06 04:02:48;;;;;;;1.20;0.20;;;;;;;3.65;72.77;101676.19;5037174;28;20060;-72
2023/10/06 04:05:18;;;;;;;2.05;0.40;;;;;;;3.64;72.76;101661.50;5032831;28;20045;-72
2023/10/06 04:07:46;;;;;;;0.93;0.20;;;;;;;3.63;72.66;101659.78;5040260;28;20068;-73
2023/10/06 04:10:15;;;;;;;3.42;0.30;;;;;;;3.63;73.04;101657.19;5036751;28;20506;-72
2023/10/06 04:12:43;;;;;;;0.77;0.20;;;;;;;3.60;72.87;101657.97;5042421;28;20137;-72
2023/10/06 04:15:17;;;;;;;0.50;0.20;;;;;;;3.63;73.05;101664.94;5032650;28;20085;-72
2023/10/06 04:17:44;;;;;;;0.63;0.20;;;;;;;3.62;72.95;101657.16;5038161;28;20097;-72
2023/10/06 04:20:14;;;;;;;1.92;0.20;;;;;;;3.62;73.06;101654.59;5034365;28;20467;-72
2023/10/06 04:22:42;;;;;;;0.50;0.20;;;;;;;3.62;72.85;101658.03;5031585;28;20049;-72
2023/10/06 04:25:11;;;;;;;0.88;0.20;;;;;;;3.61;72.90;101653.69;5036032;28;20110;-72
2023/10/06 04:27:39;;;;;;;0.82;0.20;;;;;;;3.62;73.07;101649.41;5038592;28;20117;-72
2023/10/06 04:30:11;;;;;;;1.10;0.20;;;;;;;3.62;73.18;101649.41;5036491;28;20049;-74
2023/10/06 04:32:40;;;;;;;0.85;0.10;;;;;;;3.61;73.10;101635.59;5033028;28;20146;-72
2023/10/06 04:35:19;;;;;;;1.05;0.30;;;;;;;3.62;73.01;101641.66;5032050;28;20060;-72
2023/10/06 04:37:48;;;;;;;0.47;0.20;;;;;;;3.57;73.38;101620.88;5033451;28;20052;-73
2023/10/06 04:40:18;;;;;;;0.70;0.20;;;;;;;3.61;73.11;101622.69;5037664;28;20095;-73
2023/10/06 04:42:45;;;;;;;2.58;0.10;;;;;;;3.61;73.22;101625.25;5035672;28;20060;-73
2023/10/06 04:45:13;;;;;;;0.95;0.20;;;;;;;3.58;72.88;101618.31;5038155;28;20049;-72
2023/10/06 04:47:42;;;;;;;0.47;0.10;;;;;;;3.62;72.58;101619.28;5035531;28;20099;-73
2023/10/06 04:50:11;;;;;;;1.25;0.10;;;;;;;3.63;73.19;101623.59;5038042;28;20163;-72
2023/10/06 04:52:39;;;;;;;0.40;0.10;;;;;;;3.63;73.13;101618.44;5037391;28;20077;-73
2023/10/06 04:55:11;;;;;;;0.85;0.20;;;;;;;3.63;73.04;101610.69;5035285;28;20041;-73
2023/10/06 04:57:38;;;;;;;2.78;0.20;;;;;;;3.63;73.16;101604.66;5032129;28;20050;-74
2023/10/06 05:00:13;;;;;;;0.55;0.10;;;;;;;3.64;73.32;101608.97;5035663;28;20056;-75
2023/10/06 05:02:44;;;;;;;2.38;0.17;;;;;;;3.64;73.30;101598.63;5034006;28;20490;-73
2023/10/06 05:05:12;;;;;;;0.93;0.20;;;;;;;3.61;73.05;101586.50;5032673;28;20454;-74
2023/10/06 05:07:39;;;;;;;0.20;0.10;;;;;;;3.63;72.94;101587.44;5038946;28;20041;-74
2023/10/06 05:10:10;;;;;;;1.17;0.10;;;;;;;3.64;73.01;101586.56;5041583;28;20118;-74
2023/10/06 05:12:38;;;;;;;0.10;0.05;;;;;;;3.65;73.04;101587.47;5042436;28;20052;-73
2023/10/06 05:15:09;;;;;;;1.02;0.20;;;;;;;3.64;72.79;101585.72;5037046;28;20563;-73
2023/10/06 05:17:37;;;;;;;2.50;0.10;;;;;;;3.66;72.96;101589.22;5040638;28;20077;-73
2023/10/06 05:20:13;;;;;;;5.45;0.80;;;;;;;3.65;73.21;101596.09;5037594;28;20049;-73
2023/10/06 05:22:40;;;;;;;1.63;0.10;;;;;;;3.65;73.09;101598.69;5040371;28;20056;-73
2023/10/06 05:25:13;;;;;;;0.52;0.10;;;;;;;3.66;73.16;101597.84;5035612;28;20037;-73
2023/10/06 05:27:39;;;;;;;0.40;0.10;;;;;;;3.66;73.13;101594.38;5031456;28;20569;-72
2023/10/06 05:30:08;;;;;;;1.70;0.20;;;;;;;3.65;73.09;101588.34;5038016;28;20049;-72
2023/10/06 05:32:35;;;;;;;3.30;0.20;;;;;;;3.66;73.24;101584.91;5010027;28;20952;-73
2023/10/06 05:35:03;;;;;;;1.42;0.15;;;;;;;3.67;73.62;101578.94;5070732;28;20122;-72
2023/10/06 05:37:32;;;;;;;0.40;0.10;;;;;;;3.68;73.39;101583.25;5062546;28;20521;-74
2023/10/06 05:39:59;;;;;;;1.25;0.10;;;;;;;3.70;73.53;101575.50;5072886;28;20417;-72
2023/10/06 05:42:29;;;;;;;1.40;0.10;;;;;;;3.73;73.35;101578.16;5077540;28;20055;-73
2023/10/06 05:44:56;;;;;;;1.65;0.20;;;;;;;3.74;73.57;101567.88;5081491;28;20048;-73
2023/10/06 05:47:23;;;;;;;0.75;0.20;;;;;;;3.76;73.64;101560.16;5079343;28;20051;-74
2023/10/06 05:49:53;;;;;;;0.65;0.20;;;;;;;3.79;73.45;101560.22;5076367;28;20052;-74
2023/10/06 05:52:20;;;;;;;0.82;0.22;;;;;;;3.79;73.67;101555.94;5079435;28;20048;-74
2023/10/06 05:54:49;;;;;;;0.40;0.10;;;;;;;3.83;73.75;101557.72;5078460;28;20555;-74
2023/10/06 05:57:16;;;;;;;0.77;0.20;;;;;;;3.86;73.89;101556.94;5078898;28;20060;-75
2023/10/06 05:59:44;;;;;;;0.47;0.20;;;;;;;3.90;73.96;101552.69;5081712;28;20093;-73
2023/10/06 06:02:12;;;;;;;3.03;0.20;;;;;;;3.92;74.09;101559.63;5074649;28;20048;-73
2023/10/06 06:04:41;;;;;;;3.42;0.30;;;;;;;3.95;74.03;101554.53;5081460;28;20476;-73
2023/10/06 06:07:08;;;;;;;1.23;0.10;;;;;;;3.97;74.24;101555.44;5077404;28;20051;-74
2023/10/06 06:09:35;;;;;;;1.27;0.20;;;;;;;3.96;74.45;101539.91;5078450;28;20047;-73
2023/10/06 06:12:05;;;;;;;1.00;0.20;;;;;;;4.06;74.08;101547.00;5076708;28;20048;-74
2023/10/06 06:14:33;;;;;;;0.82;0.20;;;;;;;4.11;74.25;101542.81;5084852;28;20076;-73
2023/10/06 06:17:00;;;;;;;0.47;0.20;;;;;;;4.11;74.23;101527.28;5075379;28;20066;-74
2023/10/06 06:19:27;;;;;;;1.83;0.28;;;;;;;4.18;74.35;101534.31;5082542;28;20043;-73
2023/10/06 06:21:54;;;;;;;2.13;0.30;;;;;;;4.23;74.53;101526.66;5073086;28;20059;-74
2023/10/06 06:24:22;;;;;;;0.43;0.20;;;;;;;4.26;74.67;101526.72;5073166;28;20491;-73
2023/10/06 06:26:49;;;;;;;2.67;0.28;;;;;;;4.33;74.58;101522.56;5083275;28;20047;-74
2023/10/06 06:29:19;;;;;;;1.02;0.30;;;;;;;4.37;74.75;101514.00;5080232;28;20048;-74
2023/10/06 06:31:46;;;;;;;1.15;0.20;;;;;;;4.41;74.89;101516.69;5077685;28;20093;-73
2023/10/06 06:34:13;;;;;;;0.90;0.20;;;;;;;4.47;74.90;101521.09;5077731;28;20047;-73
2023/10/06 06:36:41;;;;;;;2.67;0.55;;;;;;;4.38;74.94;101492.44;5081581;28;20566;-74
2023/10/06 06:39:10;;;;;;;5.05;0.30;;;;;;;4.56;74.96;101510.91;5082413;28;20059;-74
2023/10/06 06:41:37;;;;;;;1.40;0.20;;;;;;;4.60;75.43;101501.47;5074265;28;20049;-73
2023/10/06 06:44:05;;;;;;;4.45;0.30;;;;;;;4.66;75.43;101505.03;5081421;28;20089;-74
2023/10/06 06:46:35;;;;;;;1.67;0.20;;;;;;;4.69;75.63;101494.72;5078285;28;20135;-75
2023/10/06 06:49:02;;;;;;;2.80;0.20;;;;;;;4.76;75.81;101493.13;5081370;28;20778;-74
2023/10/06 06:51:30;;;;;;;0.70;0.20;;;;;;;4.79;75.86;101488.00;5083627;28;20044;-73
2023/10/06 06:53:57;;;;;;;4.70;0.55;;;;;;;4.86;75.92;101482.06;5075963;28;21483;-72
2023/10/06 06:56:28;;;;;;;3.65;0.20;;;;;;;4.92;76.08;101478.72;5077617;28;20120;-73
2023/10/06 06:58:55;;;;;;;3.13;0.17;;;;;;;4.96;76.01;101473.63;5077120;28;20047;-76
2023/10/06 07:01:23;;;;;;;1.60;0.25;;;;;;;5.03;76.10;101463.34;5073353;28;20586;-75
2023/10/06 07:03:51;;;;;;;2.17;0.30;;;;;;;5.06;76.44;101461.69;5075427;28;20078;-75
2023/10/06 07:06:18;;;;;;;5.38;0.30;;;;;;;5.13;76.44;101460.06;5079540;28;20048;-76
2023/10/06 07:08:45;;;;;;;1.85;0.20;;;;;;;5.18;76.63;101454.09;5076551;28;20044;-75
2023/10/06 07:11:13;;;;;;;5.60;0.30;;;;;;;5.26;76.75;101453.31;5078541;28;20066;-75
2023/10/06 07:13:39;;;;;;;0.63;0.30;;;;;;;5.30;77.00;101455.13;5074155;28;20584;-76
2023/10/06 07:16:09;;;;;;;2.55;0.30;;;;;;;5.37;77.06;101452.63;5080497;28;20047;-76
2023/10/06 07:18:36;;;;;;;1.20;0.20;;;;;;;5.45;77.04;101459.66;5077255;28;20101;-73
2023/10/06 07:21:10;;;;;;;1.77;0.22;;;;;;;5.46;77.12;101441.50;5082370;28;20055;-71
2023/10/06 07:23:37;;;;;;;2.05;0.88;;;;;;;5.58;77.43;101456.38;5073200;28;20051;-71
2023/10/06 07:26:10;;;;;;;1.02;0.20;;;;;;;5.66;77.31;101448.69;5084478;28;20055;-71
2023/10/06 07:28:38;;;;;;;0.85;0.30;;;;;;;5.73;77.84;101440.16;5081939;28;20044;-71
2023/10/06 07:31:09;;;;;;;0.98;0.20;;;;;;;5.81;77.62;101439.38;5081539;28;20093;-72
2023/10/06 07:33:37;;;;;;;3.05;0.35;;;;;;;5.91;77.83;101437.75;5077686;28;20040;-71
2023/10/06 07:36:13;;;;;;;0.93;0.20;;;;;;;5.99;77.87;101433.56;5077913;28;20306;-71
2023/10/06 07:38:42;;;;;;;3.45;0.30;;;;;;;6.07;77.82;101424.13;5081104;28;20040;-71
2023/10/06 07:41:09;;;;;;;2.13;0.20;;;;;;;6.17;77.44;101424.22;5072094;28;20094;-71
2023/10/06 07:43:37;;;;;;;3.08;0.28;;;;;;;6.22;77.46;101415.63;5079207;28;20044;-71
2023/10/06 07:46:07;;;;;;;5.45;0.20;;;;;;;6.37;77.39;101419.22;5073568;28;20417;-72
2023/10/06 07:48:37;;;;;;;3.25;0.30;;;;;;;6.44;77.62;101406.31;5079829;28;20421;-71
2023/10/06 07:51:06;;;;;;;0.45;0.20;;;;;;;6.53;77.24;101411.59;5073039;28;20048;-71
2023/10/06 07:53:35;;;;;;;1.85;0.20;;;;;;;6.64;77.74;101397.84;5083124;28;20503;-71
2023/10/06 07:56:08;;;;;;;1.95;0.20;;;;;;;6.72;77.83;101383.19;5072604;28;20433;-71
2023/10/06 07:58:37;;;;;;;1.00;0.20;;;;;;;6.83;77.74;101378.94;5079982;28;20054;-71
2023/10/06 08:01:07;;;;;;;1.98;0.10;;;;;;;6.90;77.90;101364.25;5074290;28;20479;-72
2023/10/06 08:03:37;;;;;;;1.33;0.22;;;;;;;7.05;77.56;101356.53;5069223;28;20059;-75
2023/10/06 08:06:05;;;;;;;0.52;0.10;;;;;;;7.17;77.24;101363.53;5073102;28;20040;-71
2023/10/06 08:08:33;;;;;;;1.23;0.10;;;;;;;7.27;77.25;101357.53;5081349;28;20094;-72
2023/10/06 08:11:02;;;;;;;4.40;0.17;;;;;;;7.38;77.30;101348.03;5076766;28;20049;-73
2023/10/06 08:13:31;;;;;;;2.45;0.20;;;;;;;7.42;77.12;101326.38;5076856;28;20097;-73
2023/10/06 08:15:58;;;;;;;3.58;0.20;;;;;;;7.59;76.99;101326.44;5079401;28;20408;-72
2023/10/06 08:18:28;;;;;;;2.00;0.20;;;;;;;7.71;76.70;101311.72;5076424;28;20459;-72
2023/10/06 08:20:55;;;;;;;0.30;0.20;;;;;;;7.83;77.12;101298.75;5079139;28;20126;-73
2023/10/06 08:23:22;;;;;;;0.55;0.10;;;;;;;7.92;76.97;101292.69;5077147;28;20052;-74
2023/10/06 08:25:49;;;;;;;1.00;0.35;;;;;;;8.01;76.19;101277.94;5078586;28;20056;-73
2023/10/06 08:28:17;;;;;;;3.90;0.20;;;;;;;8.07;76.11;101270.13;5076609;28;20518;-72
2023/10/06 08:30:44;;;;;;;2.03;0.13;;;;;;;8.19;76.18;101263.19;5077515;28;20481;-73
2023/10/06 08:33:12;;;;;;;0.75;0.10;;;;;;;8.27;76.12;101264.06;5078243;28;20049;-72
2023/10/06 08:35:40;;;;;;;1.48;0.20;;;;;;;8.32;76.38;101238.91;5082851;28;20055;-73
2023/10/06 08:38:07;;;;;;;2.88;0.30;;;;;;;8.39;75.64;101237.16;5074487;28;21420;-73
2023/10/06 08:40:37;;;;;;;1.38;0.20;;;;;;;8.50;75.86;101235.41;5082307;28;20052;-73
2023/10/06 08:43:07;;;;;;;2.10;0.10;;;;;;;8.59;75.42;101226.72;5080359;28;20052;-73
2023/10/06 08:45:44;;;;;;;2.30;0.20;;;;;;;8.63;75.56;101226.72;5082181;28;20044;-70
2023/10/06 08:48:13;;;;;;;1.38;0.30;;;;;;;8.73;75.06;101233.59;5082947;28;20048;-72
2023/10/06 08:50:43;;;;;;;5.72;1.58;;;;;;;8.74;75.25;101209.31;5078756;28;20064;-73
2023/10/06 08:53:13;;;;;;;1.67;0.10;;;;;;;8.87;74.98;101219.66;5083253;28;20683;-73
2023/10/06 08:55:43;;;;;;;0.70;0.20;;;;;;;8.94;74.88;101217.03;5080021;28;20052;-73
2023/10/06 08:58:13;;;;;;;2.08;0.20;;;;;;;9.00;74.78;101203.97;5084601;28;20044;-73
2023/10/06 09:00:43;;;;;;;1.65;0.20;;;;;;;9.08;74.28;101198.72;5077815;28;20068;-73
2023/10/06 09:03:11;;;;;;;0.40;0.10;;;;;;;9.14;74.11;101185.66;5082343;28;20123;-73
2023/10/06 09:05:40;;;;;;;3.33;0.40;;;;;;;9.21;74.11;101179.50;5078966;28;20044;-73
2023/10/06 09:08:09;;;;;;;1.20;0.20;;;;;;;9.29;74.03;101170.78;5086083;28;20500;-73
2023/10/06 09:10:38;;;;;;;1.83;1.08;;;;;;;9.35;74.11;101153.34;5074887;28;20455;-73
2023/10/06 09:13:06;;;;;;;3.90;0.20;;;;;;;9.41;73.62;101161.13;5076327;28;20048;-73
2023/10/06 09:15:35;;;;;;;2.00;0.17;;;;;;;9.47;73.04;101149.78;5080691;28;20044;-73
2023/10/06 09:18:19;;;;;;;2.08;0.15;;;;;;;9.55;73.10;101145.38;5089353;28;20052;-74
2023/10/06 09:20:47;;;;;;;4.18;0.20;;;;;;;9.58;72.90;101137.53;5085624;28;20047;-73
2023/10/06 09:23:30;;;;;;;0.50;0.20;;;;;;;9.67;72.88;101133.97;5080899;28;20052;-74
2023/10/06 09:25:57;;;;;;;4.70;0.22;;;;;;;9.73;72.55;101127.81;5087602;28;20067;-74
2023/10/06 09:28:25;;;;;;;2.22;1.15;;;;;;;9.79;72.39;101135.59;5078961;28;20063;-75
2023/10/06 09:30:56;;;;;;;0.60;0.20;;;;;;;9.83;72.24;101121.66;5087352;28;20063;-75
2023/10/06 09:33:26;;;;;;;0.20;0.10;;;;;;;9.89;72.20;101116.38;5078428;28;20056;-73
2023/10/06 09:36:07;;;;;;;0.75;0.20;;;;;;;9.95;71.99;101105.00;5079487;28;20055;-74
2023/10/06 09:38:35;;;;;;;0.82;0.20;;;;;;;9.97;71.49;101087.59;5083247;28;20560;-76
2023/10/06 09:41:02;;;;;;;3.65;0.20;;;;;;;10.04;71.69;101089.25;5081805;28;20051;-74
2023/10/06 09:43:33;;;;;;;1.05;0.17;;;;;;;10.09;71.84;101090.06;5082744;28;20058;-76
2023/10/06 09:46:06;;;;;;;1.70;0.20;;;;;;;10.12;71.64;101080.44;5085785;28;20055;-76
2023/10/06 09:48:37;;;;;;;2.65;1.27;;;;;;;10.16;71.37;101075.19;5086094;28;20052;-74
2023/10/06 09:51:09;;;;;;;5.43;0.20;;;;;;;10.22;71.14;101069.91;5079408;28;20044;-76
2023/10/06 09:53:38;;;;;;;1.38;0.28;;;;;;;10.27;70.91;101065.50;5086086;28;20048;-73
2023/10/06 09:56:07;;;;;;;1.50;0.17;;;;;;;10.29;70.83;101053.31;5077762;28;20063;-73
2023/10/06 09:58:36;;;;;;;0.93;0.20;;;;;;;10.36;71.08;101044.53;5074653;28;20466;-74
2023/10/06 10:01:03;;;;;;;2.38;0.20;;;;;;;10.40;71.06;101033.13;5075622;28;20465;-74
2023/10/06 10:03:33;;;;;;;2.95;0.20;;;;;;;10.45;71.29;101027.88;5078966;28;20056;-74
2023/10/06 10:06:04;;;;;;;1.35;0.20;;;;;;;10.45;71.14;101023.50;5082066;28;20121;-72
2023/10/06 10:08:32;;;;;;;1.38;0.03;;;;;;;10.53;71.18;101012.91;5078664;28;20087;-72
2023/10/06 10:11:01;;;;;;;1.02;0.10;;;;;;;10.55;71.43;101000.72;5079267;28;20059;-72
2023/10/06 10:14:07;;;;;;;0.28;0.25;;;;;;;10.61;71.46;100992.78;5075501;28;20155;-72
2023/10/06 10:16:56;;;;;;;1.45;0.20;;;;;;;10.65;71.37;100981.41;5062054;28;20050;-70
2023/10/06 10:19:26;;;;;;;3.20;0.20;;;;;;;10.69;71.71;100974.38;5088523;28;20044;-71
2023/10/06 10:21:56;;;;;;;1.95;0.10;;;;;;;10.73;71.69;100965.59;5073729;28;20040;-70
2023/10/06 10:24:23;;;;;;;4.85;0.20;;;;;;;10.76;71.78;100965.56;5084555;28;20051;-71
2023/10/06 10:26:51;;;;;;;0.30;0.10;;;;;;;10.75;71.98;100945.53;5077921;28;20041;-71
2023/10/06 10:29:31;;;;;;;5.43;1.95;;;;;;;10.85;71.87;100944.50;5083753;28;20044;-71
2023/10/06 10:32:03;;;;;;;1.85;0.20;;;;;;;10.89;71.96;100940.09;5084137;28;20684;-71
2023/10/06 10:34:34;;;;;;;1.65;0.20;;;;;;;10.91;72.16;100928.72;5072952;28;20048;-71
2023/10/06 10:37:18;;;;;;;3.08;0.22;;;;;;;10.95;72.09;100917.31;5081618;28;20048;-71
2023/10/06 10:39:50;;;;;;;3.75;0.70;;;;;;;10.97;72.38;100907.69;5079593;28;20723;-71
2023/10/06 10:42:18;;;;;;;1.65;0.10;;;;;;;11.00;72.50;100901.56;5082905;28;20048;-71
2023/10/06 10:44:47;;;;;;;0.65;0.10;;;;;;;11.05;72.67;100893.63;5075556;28;20059;-71
2023/10/06 10:47:15;;;;;;;2.25;0.32;;;;;;;11.07;72.97;100886.59;5081967;28;20055;-73
2023/10/06 10:49:44;;;;;;;2.03;0.20;;;;;;;11.10;72.93;100869.13;5080186;28;20052;-74
2023/10/06 10:52:11;;;;;;;9.57;0.82;;;;;;;11.13;73.45;100863.00;5082458;28;20048;-74
2023/10/06 10:54:43;;;;;;;0.75;0.10;;;;;;;11.12;73.59;100846.41;5075062;28;20126;-74
2023/10/06 10:57:13;;;;;;;0.40;0.20;;;;;;;11.15;73.44;100837.66;5075512;28;20052;-74
2023/10/06 11:00:13;;;;;;;6.35;0.55;;;;;;;11.18;73.68;100827.13;5072201;28;20048;-75
2023/10/06 11:03:02;;;;;;;3.22;0.20;;;;;;;11.19;73.74;100807.97;5070703;28;20062;-76
2023/10/06 11:05:31;;;;;;;2.42;0.30;;;;;;;11.20;73.90;100793.97;5076691;28;20051;-76
2023/10/06 11:07:59;;;;;;;4.47;0.40;;;;;;;11.18;74.18;100780.06;5077913;28;20517;-75
2023/10/06 11:10:27;;;;;;;2.25;0.20;;;;;;;11.24;74.33;100777.31;5080249;28;20414;-74
2023/10/06 11:13:15;;;;;;;2.22;0.30;;;;;;;11.25;74.43;100768.59;5083129;28;20061;-74
2023/10/06 11:15:42;;;;;;;0.82;0.20;;;;;;;11.26;74.88;100752.88;5073251;28;20043;-77
2023/10/06 11:18:09;;;;;;;4.32;0.20;;;;;;;11.29;74.94;100749.31;5080196;28;20058;-74
2023/10/06 11:20:38;;;;;;;1.80;0.15;;;;;;;11.31;75.04;100744.94;5080198;28;20378;-76
2023/10/06 11:23:05;;;;;;;3.80;0.20;;;;;;;11.32;75.54;100730.94;5076628;28;20416;-77
2023/10/06 11:25:36;;;;;;;3.72;0.20;;;;;;;11.35;75.49;100716.94;5080853;28;20039;-75
2023/10/06 11:28:04;;;;;;;2.92;0.20;;;;;;;11.36;75.84;100703.84;5077013;28;20079;-75
2023/10/06 11:30:32;;;;;;;1.67;0.30;;;;;;;11.32;76.01;100683.88;5082275;28;20436;-75
2023/10/06 11:33:02;;;;;;;3.60;0.28;;;;;;;11.40;76.12;100671.50;5077990;28;20538;-77
2023/10/06 11:35:29;;;;;;;1.48;0.20;;;;;;;11.42;76.32;100664.47;5079994;28;20044;-78
2023/10/06 11:37:56;;;;;;;0.52;0.10;;;;;;;11.44;76.40;100651.34;5083741;28;20044;-74
2023/10/06 11:40:24;;;;;;;2.67;0.20;;;;;;;11.45;76.75;100642.63;5083448;28;20040;-75
2023/10/06 11:42:53;;;;;;;2.15;0.10;;;;;;;11.45;76.66;100627.78;5078534;28;20040;-76
2023/10/06 11:45:26;;;;;;;2.95;0.65;;;;;;;11.46;76.99;100624.25;5082182;28;20043;-76
2023/10/06 11:47:53;;;;;;;5.28;0.20;;;;;;;11.47;77.03;100619.91;5081245;28;20048;-76